sensor_id;sensor_type;location;lat;lon;timestamp;P1;durP1;ratioP1;P2;durP2;ratioP2
52033;SDS011;38045;52.988;6.536;2022-08-11T00:00:16;7.45;;;5.30;;
52033;SDS011;38045;52.988;6.536;2022-08-11T00:02:49;5.25;;;4.78;;
52033;SDS011;38045;52.988;6.536;2022-08-11T00:05:17;5.60;;;4.30;;
52033;SDS011;38045;52.988;6.536;2022-08-11T00:10:17;5.03;;;4.63;;
52033;SDS011;38045;52.988;6.536;2022-08-11T00:12:49;7.82;;;5.70;;
52033;SDS011;38045;52.988;6.536;2022-08-11T00:15:24;7.15;;;5.32;;
52033;SDS011;38045;52.988;6.536;2022-08-11T00:17:56;6.78;;;5.47;;
52033;SDS011;38045;52.988;6.536;2022-08-11T00:20:24;5.60;;;4.95;;
52033;SDS011;38045;52.988;6.536;2022-08-11T00:23:00;5.10;;;4.60;;
52033;SDS011;38045;52.988;6.536;2022-08-11T00:25:30;9.55;;;5.35;;
52033;SDS011;38045;52.988;6.536;2022-08-11T00:30:51;6.50;;;5.40;;
52033;SDS011;38045;52.988;6.536;2022-08-11T00:33:19;6.05;;;5.18;;
52033;SDS011;38045;52.988;6.536;2022-08-11T00:35:48;5.97;;;4.88;;
52033;SDS011;38045;52.988;6.536;2022-08-11T00:38:15;5.18;;;4.75;;
52033;SDS011;38045;52.988;6.536;2022-08-11T00:40:50;6.55;;;5.88;;
52033;SDS011;38045;52.988;6.536;2022-08-11T00:46:28;7.88;;;5.65;;
52033;SDS011;38045;52.988;6.536;2022-08-11T00:49:15;11.57;;;6.07;;
52033;SDS011;38045;52.988;6.536;2022-08-11T01:17:51;7.65;;;6.20;;
52033;SDS011;38045;52.988;6.536;2022-08-11T01:25:54;7.10;;;6.38;;
52033;SDS011;38045;52.988;6.536;2022-08-11T01:28:52;7.72;;;7.05;;
52033;SDS011;38045;52.988;6.536;2022-08-11T01:34:42;8.98;;;6.80;;
52033;SDS011;38045;52.988;6.536;2022-08-11T01:37:25;10.35;;;7.38;;
52033;SDS011;38045;52.988;6.536;2022-08-11T01:42:57;13.70;;;7.20;;
52033;SDS011;38045;52.988;6.536;2022-08-11T01:52:20;8.43;;;7.70;;
52033;SDS011;38045;52.988;6.536;2022-08-11T01:55:06;11.32;;;7.80;;
52033;SDS011;38045;52.988;6.536;2022-08-11T01:58:35;8.15;;;7.35;;
52033;SDS011;38045;52.988;6.536;2022-08-11T02:00:47;8.88;;;7.40;;
52033;SDS011;38045;52.988;6.536;2022-08-11T02:03:37;7.43;;;6.63;;
52033;SDS011;38045;52.988;6.536;2022-08-11T02:06:13;7.97;;;7.18;;
52033;SDS011;38045;52.988;6.536;2022-08-11T02:09:13;9.68;;;7.72;;
52033;SDS011;38045;52.988;6.536;2022-08-11T02:11:40;11.50;;;7.22;;
52033;SDS011;38045;52.988;6.536;2022-08-11T02:14:14;11.93;;;9.50;;
52033;SDS011;38045;52.988;6.536;2022-08-11T02:17:04;11.55;;;8.50;;
52033;SDS011;38045;52.988;6.536;2022-08-11T02:31:39;10.00;;;7.35;;
52033;SDS011;38045;52.988;6.536;2022-08-11T02:40:35;9.75;;;8.85;;
52033;SDS011;38045;52.988;6.536;2022-08-11T02:43:13;12.82;;;9.30;;
52033;SDS011;38045;52.988;6.536;2022-08-11T02:52:07;9.95;;;9.05;;
52033;SDS011;38045;52.988;6.536;2022-08-11T02:54:44;12.55;;;9.70;;
52033;SDS011;38045;52.988;6.536;2022-08-11T02:57:33;10.85;;;7.78;;
52033;SDS011;38045;52.988;6.536;2022-08-11T03:00:11;9.75;;;8.75;;
52033;SDS011;38045;52.988;6.536;2022-08-11T03:02:59;13.20;;;9.95;;
52033;SDS011;38045;52.988;6.536;2022-08-11T03:05:40;10.93;;;9.70;;
52033;SDS011;38045;52.988;6.536;2022-08-11T03:08:18;10.93;;;8.60;;
52033;SDS011;38045;52.988;6.536;2022-08-11T03:10:55;11.18;;;8.25;;
52033;SDS011;38045;52.988;6.536;2022-08-11T03:20:05;11.38;;;9.15;;
52033;SDS011;38045;52.988;6.536;2022-08-11T03:25:31;12.02;;;10.82;;
52033;SDS011;38045;52.988;6.536;2022-08-11T03:36:51;13.55;;;10.30;;
52033;SDS011;38045;52.988;6.536;2022-08-11T03:45:26;15.40;;;9.55;;
52033;SDS011;38045;52.988;6.536;2022-08-11T03:48:12;11.20;;;10.10;;
52033;SDS011;38045;52.988;6.536;2022-08-11T03:53:37;15.18;;;10.27;;
52033;SDS011;38045;52.988;6.536;2022-08-11T04:01:47;12.60;;;10.80;;
52033;SDS011;38045;52.988;6.536;2022-08-11T04:15:35;13.63;;;12.23;;
52033;SDS011;38045;52.988;6.536;2022-08-11T04:31:36;11.88;;;10.68;;
52033;SDS011;38045;52.988;6.536;2022-08-11T04:45:35;16.45;;;12.95;;
52033;SDS011;38045;52.988;6.536;2022-08-11T04:57:22;14.23;;;11.85;;
52033;SDS011;38045;52.988;6.536;2022-08-11T05:00:15;14.63;;;12.75;;
52033;SDS011;38045;52.988;6.536;2022-08-11T05:09:00;13.65;;;10.95;;
52033;SDS011;38045;52.988;6.536;2022-08-11T05:20:47;15.45;;;12.27;;
52033;SDS011;38045;52.988;6.536;2022-08-11T05:23:34;12.25;;;10.95;;
52033;SDS011;38045;52.988;6.536;2022-08-11T05:26:24;11.25;;;10.15;;
52033;SDS011;38045;52.988;6.536;2022-08-11T05:32:34;12.40;;;10.25;;
52033;SDS011;38045;52.988;6.536;2022-08-11T05:35:26;11.35;;;10.18;;
52033;SDS011;38045;52.988;6.536;2022-08-11T05:37:58;12.50;;;10.80;;
52033;SDS011;38045;52.988;6.536;2022-08-11T05:40:47;10.43;;;9.25;;
52033;SDS011;38045;52.988;6.536;2022-08-11T05:43:33;11.27;;;9.88;;
52033;SDS011;38045;52.988;6.536;2022-08-11T05:46:26;11.70;;;9.85;;
52033;SDS011;38045;52.988;6.536;2022-08-11T05:49:12;9.50;;;8.20;;
52033;SDS011;38045;52.988;6.536;2022-08-11T05:51:56;12.65;;;9.07;;
52033;SDS011;38045;52.988;6.536;2022-08-11T05:54:42;10.68;;;9.43;;
52033;SDS011;38045;52.988;6.536;2022-08-11T05:57:28;9.38;;;8.48;;
52033;SDS011;38045;52.988;6.536;2022-08-11T06:00:00;11.40;;;8.65;;
52033;SDS011;38045;52.988;6.536;2022-08-11T06:02:29;11.10;;;9.15;;
52033;SDS011;38045;52.988;6.536;2022-08-11T06:04:55;9.00;;;8.10;;
52033;SDS011;38045;52.988;6.536;2022-08-11T06:07:27;10.15;;;8.25;;
52033;SDS011;38045;52.988;6.536;2022-08-11T06:09:54;9.10;;;8.20;;
52033;SDS011;38045;52.988;6.536;2022-08-11T06:12:22;11.50;;;8.05;;
52033;SDS011;38045;52.988;6.536;2022-08-11T06:14:56;20.70;;;9.43;;
52033;SDS011;38045;52.988;6.536;2022-08-11T06:17:27;8.43;;;7.43;;
52033;SDS011;38045;52.988;6.536;2022-08-11T06:20:01;8.32;;;7.43;;
52033;SDS011;38045;52.988;6.536;2022-08-11T06:22:37;7.00;;;6.38;;
52033;SDS011;38045;52.988;6.536;2022-08-11T06:25:05;8.37;;;7.47;;
52033;SDS011;38045;52.988;6.536;2022-08-11T06:27:33;7.30;;;6.60;;
52033;SDS011;38045;52.988;6.536;2022-08-11T06:30:01;8.80;;;7.90;;
52033;SDS011;38045;52.988;6.536;2022-08-11T06:32:37;6.22;;;5.40;;
52033;SDS011;38045;52.988;6.536;2022-08-11T06:42:56;6.95;;;5.95;;
52033;SDS011;38045;52.988;6.536;2022-08-11T06:48:17;7.03;;;5.60;;
52033;SDS011;38045;52.988;6.536;2022-08-11T06:50:52;9.20;;;4.38;;
52033;SDS011;38045;52.988;6.536;2022-08-11T06:53:38;5.47;;;4.97;;
52033;SDS011;38045;52.988;6.536;2022-08-11T06:56:07;8.25;;;5.70;;
52033;SDS011;38045;52.988;6.536;2022-08-11T06:58:53;8.45;;;5.38;;
52033;SDS011;38045;52.988;6.536;2022-08-11T07:05:02;5.90;;;5.40;;
52033;SDS011;38045;52.988;6.536;2022-08-11T07:07:17;5.72;;;4.85;;
52033;SDS011;38045;52.988;6.536;2022-08-11T07:13:23;3.67;;;3.42;;
52033;SDS011;38045;52.988;6.536;2022-08-11T07:16:09;5.68;;;4.18;;
52033;SDS011;38045;52.988;6.536;2022-08-11T07:18:40;4.53;;;3.10;;
52033;SDS011;38045;52.988;6.536;2022-08-11T07:21:29;4.18;;;3.03;;
52033;SDS011;38045;52.988;6.536;2022-08-11T07:24:18;4.45;;;4.05;;
52033;SDS011;38045;52.988;6.536;2022-08-11T07:27:07;4.13;;;3.53;;
52033;SDS011;38045;52.988;6.536;2022-08-11T07:29:56;5.55;;;3.53;;
52033;SDS011;38045;52.988;6.536;2022-08-11T07:32:25;3.70;;;2.50;;
52033;SDS011;38045;52.988;6.536;2022-08-11T07:34:56;4.75;;;2.72;;
52033;SDS011;38045;52.988;6.536;2022-08-11T07:37:33;5.20;;;3.05;;
52033;SDS011;38045;52.988;6.536;2022-08-11T07:40:00;2.65;;;2.13;;
52033;SDS011;38045;52.988;6.536;2022-08-11T07:42:29;7.15;;;3.25;;
52033;SDS011;38045;52.988;6.536;2022-08-11T07:44:59;4.18;;;2.97;;
52033;SDS011;38045;52.988;6.536;2022-08-11T07:47:47;4.45;;;3.20;;
52033;SDS011;38045;52.988;6.536;2022-08-11T07:50:32;3.05;;;2.08;;
52033;SDS011;38045;52.988;6.536;2022-08-11T07:53:18;2.60;;;2.28;;
52033;SDS011;38045;52.988;6.536;2022-08-11T07:55:47;3.20;;;2.67;;
52033;SDS011;38045;52.988;6.536;2022-08-11T07:58:13;3.50;;;2.17;;
52033;SDS011;38045;52.988;6.536;2022-08-11T08:00:58;1.88;;;1.77;;
52033;SDS011;38045;52.988;6.536;2022-08-11T08:03:43;1.52;;;1.40;;
52033;SDS011;38045;52.988;6.536;2022-08-11T08:06:29;4.75;;;2.35;;
52033;SDS011;38045;52.988;6.536;2022-08-11T08:09:16;1.70;;;1.60;;
52033;SDS011;38045;52.988;6.536;2022-08-11T08:12:02;2.90;;;2.30;;
52033;SDS011;38045;52.988;6.536;2022-08-11T08:14:47;3.80;;;2.28;;
52033;SDS011;38045;52.988;6.536;2022-08-11T08:17:36;2.58;;;2.38;;
52033;SDS011;38045;52.988;6.536;2022-08-11T08:20:17;1.65;;;1.55;;
52033;SDS011;38045;52.988;6.536;2022-08-11T08:22:50;2.38;;;2.00;;
52033;SDS011;38045;52.988;6.536;2022-08-11T08:25:40;2.45;;;2.25;;
52033;SDS011;38045;52.988;6.536;2022-08-11T08:28:11;1.30;;;1.30;;
52033;SDS011;38045;52.988;6.536;2022-08-11T08:30:40;1.88;;;1.77;;
52033;SDS011;38045;52.988;6.536;2022-08-11T08:35:52;1.73;;;1.63;;
52033;SDS011;38045;52.988;6.536;2022-08-11T08:38:37;1.65;;;1.55;;
52033;SDS011;38045;52.988;6.536;2022-08-11T08:41:11;2.53;;;2.10;;
52033;SDS011;38045;52.988;6.536;2022-08-11T08:43:38;2.05;;;1.77;;
52033;SDS011;38045;52.988;6.536;2022-08-11T08:46:06;2.25;;;2.03;;
52033;SDS011;38045;52.988;6.536;2022-08-11T08:51:00;3.13;;;1.90;;
52033;SDS011;38045;52.988;6.536;2022-08-11T08:53:50;1.90;;;1.52;;
52033;SDS011;38045;52.988;6.536;2022-08-11T08:56:17;1.60;;;1.50;;
52033;SDS011;38045;52.988;6.536;2022-08-11T08:58:45;1.70;;;1.60;;
52033;SDS011;38045;52.988;6.536;2022-08-11T09:01:14;2.05;;;1.67;;
52033;SDS011;38045;52.988;6.536;2022-08-11T09:03:44;1.65;;;1.55;;
52033;SDS011;38045;52.988;6.536;2022-08-11T09:06:10;2.72;;;1.83;;
52033;SDS011;38045;52.988;6.536;2022-08-11T09:08:36;2.67;;;1.88;;
52033;SDS011;38045;52.988;6.536;2022-08-11T09:11:04;4.43;;;1.60;;
52033;SDS011;38045;52.988;6.536;2022-08-11T09:13:49;2.58;;;1.67;;
52033;SDS011;38045;52.988;6.536;2022-08-11T09:16:15;5.20;;;2.20;;
52033;SDS011;38045;52.988;6.536;2022-08-11T09:18:42;2.30;;;1.75;;
52033;SDS011;38045;52.988;6.536;2022-08-11T09:21:10;1.92;;;1.83;;
52033;SDS011;38045;52.988;6.536;2022-08-11T09:23:38;4.60;;;1.85;;
52033;SDS011;38045;52.988;6.536;2022-08-11T09:26:23;1.73;;;1.52;;
52033;SDS011;38045;52.988;6.536;2022-08-11T09:29:08;3.60;;;1.50;;
52033;SDS011;38045;52.988;6.536;2022-08-11T09:31:35;2.20;;;1.63;;
52033;SDS011;38045;52.988;6.536;2022-08-11T09:34:01;1.50;;;1.40;;
52033;SDS011;38045;52.988;6.536;2022-08-11T09:36:28;1.80;;;1.70;;
52033;SDS011;38045;52.988;6.536;2022-08-11T09:39:13;3.17;;;1.42;;
52033;SDS011;38045;52.988;6.536;2022-08-11T09:41:59;2.42;;;1.73;;
52033;SDS011;38045;52.988;6.536;2022-08-11T09:44:27;3.60;;;1.73;;
52033;SDS011;38045;52.988;6.536;2022-08-11T09:47:14;8.43;;;1.98;;
52033;SDS011;38045;52.988;6.536;2022-08-11T09:49:50;3.95;;;1.60;;
52033;SDS011;38045;52.988;6.536;2022-08-11T09:52:18;1.30;;;1.20;;
52033;SDS011;38045;52.988;6.536;2022-08-11T09:54:47;1.83;;;1.33;;
52033;SDS011;38045;52.988;6.536;2022-08-11T09:57:17;3.03;;;1.70;;
52033;SDS011;38045;52.988;6.536;2022-08-11T10:00:04;2.00;;;1.48;;
52033;SDS011;38045;52.988;6.536;2022-08-11T10:02:36;4.18;;;1.98;;
52033;SDS011;38045;52.988;6.536;2022-08-11T10:05:06;6.75;;;1.90;;
52033;SDS011;38045;52.988;6.536;2022-08-11T10:07:55;1.92;;;1.40;;
52033;SDS011;38045;52.988;6.536;2022-08-11T10:10:22;2.20;;;1.60;;
52033;SDS011;38045;52.988;6.536;2022-08-11T10:12:51;3.30;;;2.33;;
52033;SDS011;38045;52.988;6.536;2022-08-11T10:15:21;2.28;;;1.42;;
52033;SDS011;38045;52.988;6.536;2022-08-11T10:18:18;1.35;;;1.27;;
52033;SDS011;38045;52.988;6.536;2022-08-11T10:23:37;2.30;;;1.88;;
52033;SDS011;38045;52.988;6.536;2022-08-11T10:26:22;2.60;;;1.33;;
52033;SDS011;38045;52.988;6.536;2022-08-11T10:29:08;2.03;;;1.90;;
52033;SDS011;38045;52.988;6.536;2022-08-11T10:31:54;8.02;;;1.92;;
52033;SDS011;38045;52.988;6.536;2022-08-11T10:34:38;2.38;;;1.33;;
52033;SDS011;38045;52.988;6.536;2022-08-11T10:37:06;8.00;;;1.85;;
52033;SDS011;38045;52.988;6.536;2022-08-11T10:39:32;1.48;;;1.30;;
52033;SDS011;38045;52.988;6.536;2022-08-11T10:41:59;2.90;;;2.25;;
52033;SDS011;38045;52.988;6.536;2022-08-11T10:44:46;2.67;;;2.10;;
52033;SDS011;38045;52.988;6.536;2022-08-11T10:47:14;1.60;;;1.50;;
52033;SDS011;38045;52.988;6.536;2022-08-11T10:50:03;2.83;;;1.23;;
52033;SDS011;38045;52.988;6.536;2022-08-11T10:52:51;2.08;;;1.75;;
52033;SDS011;38045;52.988;6.536;2022-08-11T10:55:37;3.42;;;1.92;;
52033;SDS011;38045;52.988;6.536;2022-08-11T10:58:22;4.82;;;1.88;;
52033;SDS011;38045;52.988;6.536;2022-08-11T11:01:07;3.53;;;1.58;;
52033;SDS011;38045;52.988;6.536;2022-08-11T11:03:33;1.80;;;1.65;;
52033;SDS011;38045;52.988;6.536;2022-08-11T11:11:35;2.63;;;1.88;;
52033;SDS011;38045;52.988;6.536;2022-08-11T11:14:21;1.75;;;1.23;;
52033;SDS011;38045;52.988;6.536;2022-08-11T11:17:11;2.20;;;2.00;;
52033;SDS011;38045;52.988;6.536;2022-08-11T11:19:37;2.63;;;1.58;;
52033;SDS011;38045;52.988;6.536;2022-08-11T11:22:04;2.55;;;1.42;;
52033;SDS011;38045;52.988;6.536;2022-08-11T11:27:56;0.82;;;0.82;;
52033;SDS011;38045;52.988;6.536;2022-08-11T11:30:59;1.92;;;1.40;;
52033;SDS011;38045;52.988;6.536;2022-08-11T11:39:05;4.65;;;1.13;;
52033;SDS011;38045;52.988;6.536;2022-08-11T11:41:31;2.97;;;2.08;;
52033;SDS011;38045;52.988;6.536;2022-08-11T11:43:57;3.00;;;1.42;;
52033;SDS011;38045;52.988;6.536;2022-08-11T11:46:24;1.67;;;1.58;;
52033;SDS011;38045;52.988;6.536;2022-08-11T11:48:52;1.27;;;0.90;;
52033;SDS011;38045;52.988;6.536;2022-08-11T11:51:19;2.22;;;1.30;;
52033;SDS011;38045;52.988;6.536;2022-08-11T11:53:46;3.93;;;1.47;;
52033;SDS011;38045;52.988;6.536;2022-08-11T11:56:13;3.28;;;1.73;;
52033;SDS011;38045;52.988;6.536;2022-08-11T11:58:39;2.55;;;1.85;;
52033;SDS011;38045;52.988;6.536;2022-08-11T12:01:24;3.28;;;1.77;;
52033;SDS011;38045;52.988;6.536;2022-08-11T12:03:51;2.97;;;1.20;;
52033;SDS011;38045;52.988;6.536;2022-08-11T12:06:20;2.78;;;1.70;;
52033;SDS011;38045;52.988;6.536;2022-08-11T12:14:02;1.23;;;1.13;;
52033;SDS011;38045;52.988;6.536;2022-08-11T12:16:30;1.13;;;1.02;;
52033;SDS011;38045;52.988;6.536;2022-08-11T12:18:58;1.00;;;1.00;;
52033;SDS011;38045;52.988;6.536;2022-08-11T12:21:27;2.33;;;1.00;;
52033;SDS011;38045;52.988;6.536;2022-08-11T12:23:54;1.02;;;0.93;;
52033;SDS011;38045;52.988;6.536;2022-08-11T12:26:40;1.90;;;1.80;;
52033;SDS011;38045;52.988;6.536;2022-08-11T12:29:19;4.70;;;1.40;;
52033;SDS011;38045;52.988;6.536;2022-08-11T12:31:51;1.25;;;1.02;;
52033;SDS011;38045;52.988;6.536;2022-08-11T12:34:18;2.38;;;1.33;;
52033;SDS011;38045;52.988;6.536;2022-08-11T12:36:49;0.85;;;0.85;;
52033;SDS011;38045;52.988;6.536;2022-08-11T12:39:21;5.30;;;1.77;;
52033;SDS011;38045;52.988;6.536;2022-08-11T12:42:09;3.45;;;1.50;;
52033;SDS011;38045;52.988;6.536;2022-08-11T12:44:56;2.35;;;1.02;;
52033;SDS011;38045;52.988;6.536;2022-08-11T12:47:45;0.95;;;0.95;;
52033;SDS011;38045;52.988;6.536;2022-08-11T12:50:33;1.90;;;0.75;;
52033;SDS011;38045;52.988;6.536;2022-08-11T12:53:19;1.08;;;1.02;;
52033;SDS011;38045;52.988;6.536;2022-08-11T12:55:52;3.63;;;1.02;;
52033;SDS011;38045;52.988;6.536;2022-08-11T12:58:44;1.10;;;1.00;;
52033;SDS011;38045;52.988;6.536;2022-08-11T13:01:12;1.65;;;1.50;;
52033;SDS011;38045;52.988;6.536;2022-08-11T13:03:57;3.22;;;1.35;;
52033;SDS011;38045;52.988;6.536;2022-08-11T13:06:41;2.20;;;1.10;;
52033;SDS011;38045;52.988;6.536;2022-08-11T13:09:07;1.80;;;1.70;;
52033;SDS011;38045;52.988;6.536;2022-08-11T13:11:35;2.43;;;1.30;;
52033;SDS011;38045;52.988;6.536;2022-08-11T13:14:25;1.63;;;1.50;;
52033;SDS011;38045;52.988;6.536;2022-08-11T13:16:51;2.58;;;1.25;;
52033;SDS011;38045;52.988;6.536;2022-08-11T13:19:37;2.50;;;0.98;;
52033;SDS011;38045;52.988;6.536;2022-08-11T13:22:06;3.47;;;2.30;;
52033;SDS011;38045;52.988;6.536;2022-08-11T13:24:32;1.42;;;1.27;;
52033;SDS011;38045;52.988;6.536;2022-08-11T13:26:59;2.67;;;1.63;;
52033;SDS011;38045;52.988;6.536;2022-08-11T13:29:27;3.50;;;1.83;;
52033;SDS011;38045;52.988;6.536;2022-08-11T13:31:54;3.33;;;1.08;;
52033;SDS011;38045;52.988;6.536;2022-08-11T13:34:23;1.35;;;0.90;;
52033;SDS011;38045;52.988;6.536;2022-08-11T13:36:51;2.15;;;1.67;;
52033;SDS011;38045;52.988;6.536;2022-08-11T13:39:22;1.40;;;1.30;;
52033;SDS011;38045;52.988;6.536;2022-08-11T13:41:53;1.05;;;0.95;;
52033;SDS011;38045;52.988;6.536;2022-08-11T13:44:20;2.65;;;1.05;;
52033;SDS011;38045;52.988;6.536;2022-08-11T13:46:47;1.50;;;0.85;;
52033;SDS011;38045;52.988;6.536;2022-08-11T13:49:15;1.20;;;1.08;;
52033;SDS011;38045;52.988;6.536;2022-08-11T13:51:41;1.48;;;1.13;;
52033;SDS011;38045;52.988;6.536;2022-08-11T13:54:09;2.17;;;1.05;;
52033;SDS011;38045;52.988;6.536;2022-08-11T13:56:37;1.27;;;1.15;;
52033;SDS011;38045;52.988;6.536;2022-08-11T13:59:06;1.15;;;1.05;;
52033;SDS011;38045;52.988;6.536;2022-08-11T14:01:34;1.25;;;1.05;;
52033;SDS011;38045;52.988;6.536;2022-08-11T14:04:17;0.88;;;0.80;;
52033;SDS011;38045;52.988;6.536;2022-08-11T14:06:51;1.23;;;1.00;;
52033;SDS011;38045;52.988;6.536;2022-08-11T14:09:26;1.20;;;1.10;;
52033;SDS011;38045;52.988;6.536;2022-08-11T14:11:59;2.70;;;1.13;;
52033;SDS011;38045;52.988;6.536;2022-08-11T14:14:46;1.88;;;0.98;;
52033;SDS011;38045;52.988;6.536;2022-08-11T14:17:16;0.70;;;0.70;;
52033;SDS011;38045;52.988;6.536;2022-08-11T14:22:11;1.25;;;1.15;;
52033;SDS011;38045;52.988;6.536;2022-08-11T14:24:40;2.05;;;1.20;;
52033;SDS011;38045;52.988;6.536;2022-08-11T14:27:10;3.33;;;1.65;;
52033;SDS011;38045;52.988;6.536;2022-08-11T14:29:37;2.33;;;1.02;;
52033;SDS011;38045;52.988;6.536;2022-08-11T14:32:07;1.67;;;1.35;;
52033;SDS011;38045;52.988;6.536;2022-08-11T14:34:41;1.60;;;1.50;;
52033;SDS011;38045;52.988;6.536;2022-08-11T14:37:09;2.38;;;1.42;;
52033;SDS011;38045;52.988;6.536;2022-08-11T14:39:52;2.22;;;1.02;;
52033;SDS011;38045;52.988;6.536;2022-08-11T14:42:22;2.15;;;1.40;;
52033;SDS011;38045;52.988;6.536;2022-08-11T14:45:14;2.90;;;1.73;;
52033;SDS011;38045;52.988;6.536;2022-08-11T14:48:00;1.73;;;1.55;;
52033;SDS011;38045;52.988;6.536;2022-08-11T14:50:29;4.82;;;1.65;;
52033;SDS011;38045;52.988;6.536;2022-08-11T14:53:14;3.40;;;1.17;;
52033;SDS011;38045;52.988;6.536;2022-08-11T14:55:41;1.10;;;1.10;;
52033;SDS011;38045;52.988;6.536;2022-08-11T14:58:27;1.15;;;1.10;;
52033;SDS011;38045;52.988;6.536;2022-08-11T15:00:57;1.00;;;1.00;;
52033;SDS011;38045;52.988;6.536;2022-08-11T15:03:25;1.40;;;1.30;;
52033;SDS011;38045;52.988;6.536;2022-08-11T15:05:55;3.97;;;1.25;;
52033;SDS011;38045;52.988;6.536;2022-08-11T15:08:22;1.23;;;1.13;;
52033;SDS011;38045;52.988;6.536;2022-08-11T15:11:10;2.70;;;1.17;;
52033;SDS011;38045;52.988;6.536;2022-08-11T15:13:57;1.33;;;1.23;;
52033;SDS011;38045;52.988;6.536;2022-08-11T15:16:25;1.48;;;1.02;;
52033;SDS011;38045;52.988;6.536;2022-08-11T15:19:10;1.30;;;1.20;;
52033;SDS011;38045;52.988;6.536;2022-08-11T15:21:37;2.25;;;0.90;;
52033;SDS011;38045;52.988;6.536;2022-08-11T15:24:21;0.95;;;0.90;;
52033;SDS011;38045;52.988;6.536;2022-08-11T15:26:48;1.30;;;1.20;;
52033;SDS011;38045;52.988;6.536;2022-08-11T15:29:34;3.42;;;0.85;;
52033;SDS011;38045;52.988;6.536;2022-08-11T15:32:21;1.45;;;1.30;;
52033;SDS011;38045;52.988;6.536;2022-08-11T15:35:07;2.80;;;1.92;;
52033;SDS011;38045;52.988;6.536;2022-08-11T15:37:54;1.45;;;1.13;;
52033;SDS011;38045;52.988;6.536;2022-08-11T15:40:29;2.83;;;1.05;;
52033;SDS011;38045;52.988;6.536;2022-08-11T15:43:21;1.30;;;1.10;;
52033;SDS011;38045;52.988;6.536;2022-08-11T15:46:19;2.97;;;1.23;;
52033;SDS011;38045;52.988;6.536;2022-08-11T15:49:03;3.13;;;1.40;;
52033;SDS011;38045;52.988;6.536;2022-08-11T15:54:17;2.97;;;1.52;;
52033;SDS011;38045;52.988;6.536;2022-08-11T15:56:48;2.15;;;1.55;;
52033;SDS011;38045;52.988;6.536;2022-08-11T15:59:16;1.35;;;1.25;;
52033;SDS011;38045;52.988;6.536;2022-08-11T16:02:03;1.65;;;0.95;;
52033;SDS011;38045;52.988;6.536;2022-08-11T16:04:48;1.85;;;1.35;;
52033;SDS011;38045;52.988;6.536;2022-08-11T16:07:16;1.25;;;1.15;;
52033;SDS011;38045;52.988;6.536;2022-08-11T16:09:52;1.00;;;0.90;;
52033;SDS011;38045;52.988;6.536;2022-08-11T16:12:30;1.45;;;1.35;;
52033;SDS011;38045;52.988;6.536;2022-08-11T16:15:03;4.38;;;1.67;;
52033;SDS011;38045;52.988;6.536;2022-08-11T16:17:55;1.85;;;1.20;;
52033;SDS011;38045;52.988;6.536;2022-08-11T16:20:24;3.55;;;1.52;;
52033;SDS011;38045;52.988;6.536;2022-08-11T16:22:53;3.03;;;1.42;;
52033;SDS011;38045;52.988;6.536;2022-08-11T16:25:29;1.83;;;1.45;;
52033;SDS011;38045;52.988;6.536;2022-08-11T16:27:59;4.22;;;1.40;;
52033;SDS011;38045;52.988;6.536;2022-08-11T16:30:29;1.88;;;1.70;;
52033;SDS011;38045;52.988;6.536;2022-08-11T16:32:56;1.85;;;1.60;;
52033;SDS011;38045;52.988;6.536;2022-08-11T16:35:24;3.35;;;1.20;;
52033;SDS011;38045;52.988;6.536;2022-08-11T16:38:09;5.60;;;1.17;;
52033;SDS011;38045;52.988;6.536;2022-08-11T16:40:55;4.72;;;1.70;;
52033;SDS011;38045;52.988;6.536;2022-08-11T16:43:24;2.30;;;1.67;;
52033;SDS011;38045;52.988;6.536;2022-08-11T16:46:13;2.75;;;1.20;;
52033;SDS011;38045;52.988;6.536;2022-08-11T16:49:01;5.13;;;1.90;;
52033;SDS011;38045;52.988;6.536;2022-08-11T16:51:30;1.50;;;1.40;;
52033;SDS011;38045;52.988;6.536;2022-08-11T16:53:56;2.25;;;1.63;;
52033;SDS011;38045;52.988;6.536;2022-08-11T16:56:24;2.70;;;1.67;;
52033;SDS011;38045;52.988;6.536;2022-08-11T16:58:59;6.25;;;1.63;;
52033;SDS011;38045;52.988;6.536;2022-08-11T17:01:38;5.85;;;2.10;;
52033;SDS011;38045;52.988;6.536;2022-08-11T17:04:07;3.22;;;1.60;;
52033;SDS011;38045;52.988;6.536;2022-08-11T17:06:57;4.25;;;1.40;;
52033;SDS011;38045;52.988;6.536;2022-08-11T17:09:59;5.10;;;2.30;;
52033;SDS011;38045;52.988;6.536;2022-08-11T17:12:46;5.63;;;1.90;;
52033;SDS011;38045;52.988;6.536;2022-08-11T17:15:32;3.25;;;1.90;;
52033;SDS011;38045;52.988;6.536;2022-08-11T17:18:19;2.13;;;1.70;;
52033;SDS011;38045;52.988;6.536;2022-08-11T17:21:07;1.83;;;1.60;;
52033;SDS011;38045;52.988;6.536;2022-08-11T17:23:46;2.00;;;1.73;;
52033;SDS011;38045;52.988;6.536;2022-08-11T17:26:23;1.73;;;1.60;;
52033;SDS011;38045;52.988;6.536;2022-08-11T17:32:02;4.82;;;1.83;;
52033;SDS011;38045;52.988;6.536;2022-08-11T17:34:48;4.03;;;1.80;;
52033;SDS011;38045;52.988;6.536;2022-08-11T17:37:35;4.35;;;1.67;;
52033;SDS011;38045;52.988;6.536;2022-08-11T17:40:03;2.50;;;1.95;;
52033;SDS011;38045;52.988;6.536;2022-08-11T17:42:32;1.08;;;1.02;;
52033;SDS011;38045;52.988;6.536;2022-08-11T17:45:18;4.97;;;1.60;;
52033;SDS011;38045;52.988;6.536;2022-08-11T17:48:04;2.67;;;1.92;;
52033;SDS011;38045;52.988;6.536;2022-08-11T17:51:08;5.30;;;1.63;;
52033;SDS011;38045;52.988;6.536;2022-08-11T17:53:39;2.13;;;1.90;;
52033;SDS011;38045;52.988;6.536;2022-08-11T17:56:26;4.28;;;1.80;;
52033;SDS011;38045;52.988;6.536;2022-08-11T17:59:12;2.70;;;1.80;;
52033;SDS011;38045;52.988;6.536;2022-08-11T18:01:59;6.47;;;2.50;;
52033;SDS011;38045;52.988;6.536;2022-08-11T18:04:48;1.77;;;1.67;;
52033;SDS011;38045;52.988;6.536;2022-08-11T18:07:15;7.60;;;1.90;;
52033;SDS011;38045;52.988;6.536;2022-08-11T18:10:02;2.25;;;1.98;;
52033;SDS011;38045;52.988;6.536;2022-08-11T18:12:48;4.68;;;1.73;;
52033;SDS011;38045;52.988;6.536;2022-08-11T18:15:35;1.90;;;1.80;;
52033;SDS011;38045;52.988;6.536;2022-08-11T18:18:22;1.75;;;1.65;;
52033;SDS011;38045;52.988;6.536;2022-08-11T18:21:06;8.57;;;2.03;;
52033;SDS011;38045;52.988;6.536;2022-08-11T18:23:52;4.57;;;2.08;;
52033;SDS011;38045;52.988;6.536;2022-08-11T18:26:39;2.38;;;2.13;;
52033;SDS011;38045;52.988;6.536;2022-08-11T18:29:28;4.82;;;2.45;;
52033;SDS011;38045;52.988;6.536;2022-08-11T18:32:16;10.18;;;2.30;;
52033;SDS011;38045;52.988;6.536;2022-08-11T18:35:01;3.03;;;1.92;;
52033;SDS011;38045;52.988;6.536;2022-08-11T18:37:47;4.30;;;2.33;;
52033;SDS011;38045;52.988;6.536;2022-08-11T18:40:33;3.03;;;2.72;;
52033;SDS011;38045;52.988;6.536;2022-08-11T18:43:18;3.38;;;1.88;;
52033;SDS011;38045;52.988;6.536;2022-08-11T18:46:05;1.60;;;1.50;;
52033;SDS011;38045;52.988;6.536;2022-08-11T18:48:54;4.13;;;2.05;;
52033;SDS011;38045;52.988;6.536;2022-08-11T18:51:51;7.60;;;2.00;;
52033;SDS011;38045;52.988;6.536;2022-08-11T18:54:39;4.60;;;1.45;;
52033;SDS011;38045;52.988;6.536;2022-08-11T18:57:25;2.17;;;1.70;;
52033;SDS011;38045;52.988;6.536;2022-08-11T19:00:10;1.90;;;1.80;;
52033;SDS011;38045;52.988;6.536;2022-08-11T19:02:55;4.25;;;2.25;;
52033;SDS011;38045;52.988;6.536;2022-08-11T19:05:42;1.90;;;1.80;;
52033;SDS011;38045;52.988;6.536;2022-08-11T19:08:29;6.07;;;2.75;;
52033;SDS011;38045;52.988;6.536;2022-08-11T19:11:17;3.58;;;1.45;;
52033;SDS011;38045;52.988;6.536;2022-08-11T19:14:03;1.80;;;1.70;;
52033;SDS011;38045;52.988;6.536;2022-08-11T19:16:48;4.40;;;2.60;;
52033;SDS011;38045;52.988;6.536;2022-08-11T19:19:35;6.30;;;2.05;;
52033;SDS011;38045;52.988;6.536;2022-08-11T19:22:22;3.05;;;1.70;;
52033;SDS011;38045;52.988;6.536;2022-08-11T19:25:07;1.30;;;1.17;;
52033;SDS011;38045;52.988;6.536;2022-08-11T19:27:54;3.15;;;1.88;;
52033;SDS011;38045;52.988;6.536;2022-08-11T19:30:40;2.97;;;2.30;;
52033;SDS011;38045;52.988;6.536;2022-08-11T19:33:25;2.17;;;1.70;;